createdAt,value
2022-12-20T00:01:29.459Z,20.88
2022-12-20T00:03:58.381Z,21.70
2022-12-20T00:06:25.908Z,20.42
2022-12-20T00:09:01.194Z,18.48
2022-12-20T00:11:30.450Z,19.20
2022-12-20T00:13:58.121Z,20.33
2022-12-20T00:16:27.187Z,20.85
2022-12-20T00:19:04.253Z,19.92
2022-12-20T00:21:33.251Z,21.55
2022-12-20T00:24:00.892Z,22.02
2022-12-20T00:26:30.827Z,22.38
2022-12-20T00:28:58.012Z,21.95
2022-12-20T00:31:26.296Z,20.08
2022-12-20T00:33:55.026Z,22.65
2022-12-20T00:36:23.265Z,18.75
2022-12-20T00:38:52.648Z,18.98
2022-12-20T00:41:23.386Z,20.08
2022-12-20T00:43:50.239Z,20.48
2022-12-20T00:46:19.623Z,21.75
2022-12-20T00:48:47.001Z,19.67
2022-12-20T00:51:17.630Z,20.75
2022-12-20T00:53:45.414Z,20.52
2022-12-20T00:56:13.079Z,21.65
2022-12-20T00:58:42.461Z,21.83
2022-12-20T01:01:23.478Z,20.08
2022-12-20T01:03:51.827Z,26.80
2022-12-20T01:06:19.516Z,22.55
2022-12-20T01:08:46.820Z,22.55
2022-12-20T01:11:15.761Z,20.63
2022-12-20T01:13:45.507Z,22.63
2022-12-20T01:16:18.737Z,19.38
2022-12-20T01:18:46.027Z,21.13
2022-12-20T01:21:15.407Z,20.25
2022-12-20T01:23:42.378Z,20.73
2022-12-20T01:26:17.192Z,18.80
2022-12-20T01:28:47.167Z,19.10
2022-12-20T01:31:17.069Z,19.45
2022-12-20T01:33:45.159Z,19.67
2022-12-20T01:36:18.525Z,21.15
2022-12-20T01:38:46.084Z,23.42
2022-12-20T01:41:22.142Z,19.10
2022-12-20T01:43:54.302Z,18.38
2022-12-20T01:46:25.851Z,18.98
2022-12-20T01:48:57.552Z,18.50
2022-12-20T01:51:26.006Z,19.08
2022-12-20T01:54:01.888Z,18.42
2022-12-20T01:56:29.096Z,19.10
2022-12-20T01:58:58.023Z,17.50
2022-12-20T02:01:37.776Z,18.73
2022-12-20T02:04:04.748Z,16.33
2022-12-20T02:06:31.545Z,18.92
2022-12-20T02:09:00.561Z,18.85
2022-12-20T02:11:30.674Z,19.73
2022-12-20T02:14:14.600Z,16.60
2022-12-20T02:16:50.514Z,16.13
2022-12-20T02:19:44.160Z,18.90
2022-12-20T02:22:34.309Z,19.23
2022-12-20T02:25:13.626Z,18.90
2022-12-20T02:27:55.225Z,18.10
2022-12-20T02:30:24.112Z,20.33
2022-12-20T02:33:02.578Z,22.38
2022-12-20T02:35:32.792Z,17.83
2022-12-20T02:38:02.728Z,18.20
2022-12-20T02:40:41.026Z,17.60
2022-12-20T02:43:30.945Z,18.83
2022-12-20T02:46:00.491Z,18.15
2022-12-20T02:48:30.985Z,16.58
2022-12-20T02:51:00.344Z,18.58
2022-12-20T02:53:29.312Z,18.85
2022-12-20T02:56:09.902Z,18.00
2022-12-20T02:58:52.201Z,19.73
2022-12-20T03:01:31.096Z,19.33
2022-12-20T03:03:59.741Z,17.92
2022-12-20T03:06:27.158Z,17.58
2022-12-20T03:08:54.022Z,18.70
2022-12-20T03:11:20.815Z,18.08
2022-12-20T03:13:48.033Z,18.52
2022-12-20T03:16:15.570Z,19.98
2022-12-20T03:18:42.909Z,16.90
2022-12-20T03:21:09.684Z,18.13
2022-12-20T03:23:36.499Z,17.58
2022-12-20T03:26:03.295Z,17.30
2022-12-20T03:28:30.503Z,17.17
2022-12-20T03:30:58.444Z,17.63
2022-12-20T03:33:26.375Z,18.17
2022-12-20T03:35:53.545Z,17.77
2022-12-20T03:38:20.552Z,16.95
2022-12-20T03:40:48.054Z,17.80
2022-12-20T03:43:14.858Z,18.02
2022-12-20T03:45:41.969Z,19.13
2022-12-20T03:48:09.625Z,17.10
2022-12-20T03:50:37.313Z,19.02
2022-12-20T03:53:04.824Z,19.55
2022-12-20T03:55:32.883Z,16.33
2022-12-20T03:57:59.681Z,19.23
2022-12-20T04:00:26.984Z,18.20
2022-12-20T04:02:53.919Z,17.00
2022-12-20T04:05:21.381Z,17.20
2022-12-20T04:07:48.126Z,17.00
2022-12-20T04:10:14.977Z,18.05
2022-12-20T04:12:42.159Z,15.68
2022-12-20T04:15:09.365Z,18.73
2022-12-20T04:17:36.589Z,16.50
2022-12-20T04:20:19.406Z,17.65
2022-12-20T04:22:51.544Z,16.55
2022-12-20T04:25:20.848Z,17.17
2022-12-20T04:27:47.836Z,18.40
2022-12-20T04:30:14.969Z,17.85
2022-12-20T04:32:41.746Z,17.25
2022-12-20T04:35:09.067Z,17.40
2022-12-20T04:37:35.963Z,20.20
2022-12-20T04:40:02.800Z,19.17
2022-12-20T04:42:30.014Z,18.40
2022-12-20T04:44:56.774Z,17.88
2022-12-20T04:47:23.775Z,18.90
2022-12-20T04:49:50.618Z,21.13
2022-12-20T04:52:37.817Z,19.88
2022-12-20T04:55:06.714Z,17.90
2022-12-20T04:57:34.636Z,20.58
2022-12-20T05:00:02.010Z,19.80
2022-12-20T05:02:29.374Z,20.63
2022-12-20T05:04:56.227Z,21.00
2022-12-20T05:07:23.488Z,19.02
2022-12-20T05:09:50.261Z,22.25
2022-12-20T05:12:17.059Z,20.20
2022-12-20T05:14:44.179Z,23.10
2022-12-20T05:17:10.928Z,21.70
2022-12-20T05:19:38.234Z,20.38
2022-12-20T05:22:25.487Z,21.10
2022-12-20T05:25:11.668Z,19.67
2022-12-20T05:27:38.513Z,20.33
2022-12-20T05:30:06.178Z,22.10
2022-12-20T05:32:33.019Z,19.75
2022-12-20T05:35:00.195Z,22.40
2022-12-20T05:37:27.381Z,21.85
2022-12-20T05:39:54.160Z,21.80
2022-12-20T05:42:21.418Z,22.80
2022-12-20T05:44:48.196Z,21.33
2022-12-20T05:47:15.432Z,22.23
2022-12-20T05:49:42.587Z,20.08
2022-12-20T05:52:09.480Z,20.52
2022-12-20T05:54:36.647Z,21.15
2022-12-20T05:57:03.521Z,19.48
2022-12-20T05:59:30.684Z,23.05
2022-12-20T06:01:57.949Z,21.20
2022-12-20T06:04:24.974Z,20.30
2022-12-20T06:06:52.947Z,21.02
2022-12-20T06:09:19.877Z,20.67
2022-12-20T06:11:48.130Z,23.70
2022-12-20T06:14:14.903Z,23.73
2022-12-20T06:16:42.505Z,20.85
2022-12-20T06:19:09.349Z,20.92
2022-12-20T06:21:36.332Z,21.33
2022-12-20T06:24:04.236Z,23.23
2022-12-20T06:26:36.780Z,22.15
2022-12-20T06:29:17.185Z,22.63
2022-12-20T06:31:44.686Z,20.88
2022-12-20T06:34:12.065Z,22.17
2022-12-20T06:36:40.286Z,24.08
2022-12-20T06:39:13.217Z,23.67
2022-12-20T06:41:42.482Z,22.50
2022-12-20T06:44:09.677Z,22.30
2022-12-20T06:46:40.251Z,23.25
2022-12-20T06:49:07.498Z,23.35
2022-12-20T06:51:34.398Z,23.92
2022-12-20T06:54:04.757Z,26.35
2022-12-20T06:56:40.882Z,21.27
2022-12-20T06:59:08.787Z,24.15
2022-12-20T07:05:17.171Z,21.90
2022-12-20T07:07:45.445Z,23.25
2022-12-20T07:10:13.574Z,21.70
2022-12-20T07:12:47.384Z,22.25
2022-12-20T07:15:15.569Z,22.67
2022-12-20T07:17:44.346Z,22.80
2022-12-20T07:20:13.997Z,25.35
2022-12-20T07:22:42.336Z,21.80
2022-12-20T07:25:11.494Z,23.20
2022-12-20T07:27:39.235Z,23.58
2022-12-20T07:30:06.704Z,23.42
2022-12-20T07:32:34.995Z,21.88
2022-12-20T07:35:01.925Z,21.92
2022-12-20T07:37:32.114Z,21.85
2022-12-20T07:39:59.134Z,23.63
2022-12-20T07:42:36.170Z,21.98
2022-12-20T07:45:08.691Z,20.50
2022-12-20T07:47:36.219Z,20.30
2022-12-20T07:50:05.315Z,20.20
2022-12-20T07:52:34.824Z,23.48
2022-12-20T07:55:04.705Z,22.45
2022-12-20T07:57:38.520Z,23.20
2022-12-20T08:00:08.891Z,20.77
2022-12-20T08:02:42.128Z,23.40
2022-12-20T08:05:10.746Z,23.13
2022-12-20T08:07:40.472Z,24.45
2022-12-20T08:10:15.715Z,22.75
2022-12-20T08:12:47.999Z,22.90
2022-12-20T08:15:19.692Z,23.20
2022-12-20T08:17:54.149Z,23.20
2022-12-20T08:20:21.083Z,21.50
2022-12-20T08:22:47.994Z,23.65
2022-12-20T08:25:16.933Z,25.50
2022-12-20T08:27:45.205Z,23.02
2022-12-20T08:30:13.089Z,24.02
2022-12-20T08:32:39.997Z,22.77
2022-12-20T08:35:08.214Z,22.05
2022-12-20T08:37:39.556Z,24.67
2022-12-20T08:40:07.924Z,21.58
2022-12-20T08:42:35.502Z,20.70
2022-12-20T08:45:02.870Z,22.67
2022-12-20T08:47:31.281Z,22.92
2022-12-20T08:49:58.596Z,24.65
2022-12-20T08:52:34.513Z,24.63
2022-12-20T08:55:05.245Z,21.17
2022-12-20T08:57:33.112Z,33.80
2022-12-20T09:00:00.138Z,69.55
2022-12-20T09:02:27.292Z,30.67
2022-12-20T09:04:54.343Z,32.63
2022-12-20T09:07:21.094Z,26.38
2022-12-20T09:09:53.799Z,26.35
2022-12-20T09:12:20.612Z,26.77
2022-12-20T09:14:49.801Z,25.10
2022-12-20T09:17:16.718Z,29.30
2022-12-20T09:19:43.886Z,30.95
2022-12-20T09:22:10.642Z,23.85
2022-12-20T09:24:38.141Z,26.38
2022-12-20T09:27:05.271Z,26.17
2022-12-20T09:29:35.557Z,22.83
2022-12-20T09:32:03.219Z,25.73
2022-12-20T09:34:30.174Z,23.90
2022-12-20T09:36:57.347Z,24.25
2022-12-20T09:39:24.164Z,25.10
2022-12-20T09:41:51.438Z,22.45
2022-12-20T09:44:31.167Z,24.33
2022-12-20T09:47:10.380Z,26.70
2022-12-20T09:49:42.594Z,24.10
2022-12-20T09:52:33.911Z,24.20
2022-12-20T09:55:34.391Z,25.23
2022-12-20T09:58:11.054Z,24.20
2022-12-20T10:00:53.477Z,24.77
2022-12-20T10:03:25.172Z,25.05
2022-12-20T10:06:15.680Z,23.88
2022-12-20T10:08:56.816Z,26.15
2022-12-20T10:11:50.143Z,25.45
2022-12-20T10:14:39.856Z,25.98
2022-12-20T10:17:15.704Z,27.80
2022-12-20T10:20:09.050Z,26.52
2022-12-20T10:22:46.326Z,29.90
2022-12-20T10:25:19.076Z,27.05
2022-12-20T10:27:47.969Z,26.52
2022-12-20T10:30:17.332Z,26.17
2022-12-20T10:32:47.139Z,25.58
2022-12-20T10:35:38.451Z,26.00
2022-12-20T10:38:08.920Z,26.30
2022-12-20T10:41:19.377Z,25.65
2022-12-20T10:43:44.671Z,27.40
2022-12-20T10:46:14.305Z,26.88
2022-12-20T10:48:43.536Z,28.88
2022-12-20T10:51:15.357Z,23.33
2022-12-20T10:54:04.027Z,24.77
2022-12-20T10:56:38.506Z,24.23
2022-12-20T10:59:18.138Z,24.35
2022-12-20T11:01:48.490Z,24.08
2022-12-20T11:04:42.334Z,25.67
2022-12-20T11:07:27.957Z,26.00
2022-12-20T11:09:57.813Z,27.45
2022-12-20T11:12:24.785Z,25.35
2022-12-20T11:15:13.011Z,27.73
2022-12-20T11:17:48.888Z,25.40
2022-12-20T11:20:27.031Z,25.70
2022-12-20T11:23:13.343Z,30.02
2022-12-20T11:26:22.652Z,25.98
2022-12-20T11:29:29.605Z,27.42
2022-12-20T11:32:30.740Z,30.58
2022-12-20T11:35:04.022Z,25.38
2022-12-20T11:37:44.830Z,26.30
2022-12-20T11:40:28.140Z,26.30
2022-12-20T11:43:19.269Z,26.15
2022-12-20T11:46:14.399Z,26.65
2022-12-20T11:49:02.607Z,25.33
2022-12-20T11:51:44.139Z,27.85
2022-12-20T11:54:22.222Z,21.52
2022-12-20T11:56:53.551Z,23.90
2022-12-20T11:59:37.964Z,20.55
2022-12-20T12:02:15.564Z,20.50
2022-12-20T12:04:57.210Z,24.38
2022-12-20T12:07:36.984Z,23.02
2022-12-20T12:10:20.200Z,22.52
2022-12-20T12:12:58.199Z,21.40
2022-12-20T12:15:51.301Z,22.02
2022-12-20T12:18:22.737Z,22.10
2022-12-20T12:21:21.367Z,22.83
2022-12-20T12:24:13.139Z,22.08
2022-12-20T12:26:43.841Z,22.92
2022-12-20T12:29:14.058Z,22.90
2022-12-20T12:32:04.283Z,23.45
2022-12-20T12:34:54.386Z,24.25
2022-12-20T12:37:47.068Z,26.98
2022-12-20T12:40:19.386Z,22.75
2022-12-20T12:43:04.018Z,22.17
2022-12-20T12:45:52.088Z,26.75
2022-12-20T12:48:38.897Z,29.02
2022-12-20T12:51:07.705Z,30.27
2022-12-20T12:53:55.515Z,29.95
2022-12-20T12:56:43.817Z,23.60
2022-12-20T12:59:34.856Z,25.95
2022-12-20T13:02:14.223Z,34.33
2022-12-20T13:04:59.613Z,29.52
2022-12-20T13:07:32.607Z,26.10
2022-12-20T13:10:01.724Z,28.23
2022-12-20T13:12:40.547Z,27.73
2022-12-20T13:15:22.710Z,32.95
2022-12-20T13:17:54.445Z,33.30
2022-12-20T13:20:30.289Z,29.45
2022-12-20T13:23:08.856Z,27.15
2022-12-20T13:25:39.196Z,27.60
2022-12-20T13:28:25.214Z,35.13
2022-12-20T13:31:01.094Z,28.23
2022-12-20T13:33:43.580Z,33.35
2022-12-20T13:36:10.749Z,30.38
2022-12-20T13:38:47.035Z,25.75
2022-12-20T13:41:24.391Z,29.90
2022-12-20T13:43:56.283Z,31.92
2022-12-20T13:46:50.952Z,31.55
2022-12-20T13:49:29.607Z,27.95
2022-12-20T13:52:12.477Z,27.98
2022-12-20T13:54:49.209Z,32.92
2022-12-20T13:57:21.994Z,32.58
2022-12-20T13:59:53.121Z,29.58
2022-12-20T14:02:27.029Z,32.92
2022-12-20T14:05:30.095Z,29.77
2022-12-20T14:08:03.305Z,38.53
2022-12-20T14:10:32.301Z,36.85
2022-12-20T14:13:00.719Z,28.90
2022-12-20T14:15:33.605Z,36.97
2022-12-20T14:18:19.996Z,34.15
2022-12-20T14:21:07.076Z,28.65
2022-12-20T14:23:39.965Z,30.45
2022-12-20T14:26:11.193Z,36.72
2022-12-20T14:28:39.795Z,32.63
2022-12-20T14:31:21.974Z,38.90
2022-12-20T14:33:51.914Z,33.95
2022-12-20T14:36:20.214Z,32.00
2022-12-20T14:38:50.002Z,28.67
2022-12-20T14:41:31.780Z,26.80
2022-12-20T14:44:03.384Z,35.55
2022-12-20T14:46:31.635Z,34.47
2022-12-20T14:49:37.226Z,35.25
2022-12-20T14:52:21.938Z,33.03
2022-12-20T14:55:10.826Z,33.63
2022-12-20T14:57:40.384Z,33.15
2022-12-20T15:00:24.557Z,41.38
2022-12-20T15:03:00.054Z,29.92
2022-12-20T15:05:36.591Z,28.83
2022-12-20T15:08:34.054Z,29.73
2022-12-20T15:11:22.718Z,34.78
2022-12-20T15:13:54.912Z,30.52
2022-12-20T15:16:27.179Z,34.08
2022-12-20T15:19:06.235Z,33.53
2022-12-20T15:21:37.752Z,31.83
2022-12-20T15:24:10.208Z,34.95
2022-12-20T15:26:38.787Z,42.78
2022-12-20T15:29:06.294Z,30.40
2022-12-20T15:31:36.324Z,34.25
2022-12-20T15:34:32.666Z,34.10
2022-12-20T15:37:01.014Z,32.03
2022-12-20T15:39:28.039Z,28.52
2022-12-20T15:41:56.400Z,31.35
2022-12-20T15:44:26.170Z,29.92
2022-12-20T15:46:53.622Z,29.52
2022-12-20T15:49:30.727Z,29.42
2022-12-20T15:51:58.360Z,29.65
2022-12-20T15:54:31.440Z,35.42
2022-12-20T15:57:03.097Z,31.85
2022-12-20T16:02:26.029Z,29.25
2022-12-20T16:04:53.803Z,30.15
2022-12-20T16:07:21.149Z,30.05
2022-12-20T16:09:48.181Z,34.53
2022-12-20T16:12:28.253Z,31.63
2022-12-20T16:14:57.532Z,30.08
2022-12-20T16:17:26.035Z,31.00
2022-12-20T16:19:53.065Z,33.40
2022-12-20T16:22:26.039Z,29.45
2022-12-20T16:24:53.392Z,27.55
2022-12-20T16:27:20.827Z,27.42
2022-12-20T16:29:48.095Z,28.65
2022-12-20T16:32:22.111Z,28.20
2022-12-20T16:34:50.736Z,27.27
2022-12-20T16:37:18.258Z,26.70
2022-12-20T16:39:46.341Z,26.75
2022-12-20T16:42:18.131Z,28.27
2022-12-20T16:44:46.334Z,27.70
2022-12-20T16:47:14.645Z,25.88
2022-12-20T16:49:49.617Z,29.15
2022-12-20T16:52:20.323Z,27.13
2022-12-20T16:54:48.082Z,26.70
2022-12-20T16:57:15.377Z,27.58
2022-12-20T16:59:42.158Z,24.20
2022-12-20T17:02:32.824Z,26.90
2022-12-20T17:05:00.817Z,25.88
2022-12-20T17:07:28.347Z,26.63
2022-12-20T17:10:13.266Z,25.92
2022-12-20T17:12:40.128Z,27.45
2022-12-20T17:15:08.279Z,28.65
2022-12-20T17:17:35.090Z,25.00
2022-12-20T17:20:02.162Z,27.63
2022-12-20T17:22:29.080Z,23.98
2022-12-20T17:24:55.871Z,27.15
2022-12-20T17:27:22.684Z,26.17
2022-12-20T17:29:51.267Z,27.15
2022-12-20T17:32:25.927Z,27.33
2022-12-20T17:34:53.315Z,27.33
2022-12-20T17:37:21.232Z,27.13
2022-12-20T17:39:48.448Z,27.35
2022-12-20T17:42:16.685Z,28.50
2022-12-20T17:44:43.634Z,25.50
2022-12-20T17:47:11.818Z,25.55
2022-12-20T17:49:39.141Z,27.50
2022-12-20T17:52:06.428Z,30.90
2022-12-20T17:54:39.435Z,27.40
2022-12-20T17:57:11.861Z,29.05
2022-12-20T17:59:38.624Z,30.70
2022-12-20T18:02:24.640Z,27.85
2022-12-20T18:04:52.334Z,26.67
2022-12-20T18:07:19.233Z,26.40
2022-12-20T18:09:49.421Z,27.65
2022-12-20T18:12:17.645Z,27.00
2022-12-20T18:14:45.153Z,27.10
2022-12-20T18:17:12.095Z,27.20
2022-12-20T18:19:39.570Z,25.50
2022-12-20T18:22:08.154Z,30.05
2022-12-20T18:24:34.985Z,25.58
2022-12-20T18:27:01.810Z,27.00
2022-12-20T18:29:31.547Z,25.15
2022-12-20T18:32:01.989Z,26.50
2022-12-20T18:34:29.233Z,26.60
2022-12-20T18:36:56.176Z,27.40
2022-12-20T18:39:23.887Z,29.75
2022-12-20T18:41:50.697Z,28.13
2022-12-20T18:44:17.918Z,31.25
2022-12-20T18:46:44.818Z,30.85
2022-12-20T18:49:12.258Z,33.85
2022-12-20T18:51:39.154Z,34.70
2022-12-20T18:54:14.318Z,43.53
2022-12-20T18:56:44.975Z,45.40
2022-12-20T18:59:13.615Z,42.88
2022-12-20T19:01:41.722Z,34.17
2022-12-20T19:04:09.392Z,31.80
2022-12-20T19:06:38.746Z,30.33
2022-12-20T19:09:11.539Z,28.23
2022-12-20T19:11:38.735Z,27.13
2022-12-20T19:14:08.250Z,29.52
2022-12-20T19:16:36.892Z,28.15
2022-12-20T19:19:04.826Z,27.80
2022-12-20T19:21:33.599Z,30.77
2022-12-20T19:24:07.533Z,32.67
2022-12-20T19:26:39.370Z,29.85
2022-12-20T19:29:07.244Z,33.80
2022-12-20T19:31:38.755Z,36.35
2022-12-20T19:34:15.025Z,29.52
2022-12-20T19:36:50.033Z,30.13
2022-12-20T19:39:38.860Z,27.85
2022-12-20T19:44:54.774Z,32.97
2022-12-20T19:47:21.782Z,26.70
2022-12-20T19:49:51.269Z,31.15
2022-12-20T19:52:28.079Z,27.50
2022-12-20T19:54:56.077Z,27.63
2022-12-20T19:57:22.991Z,26.20
2022-12-20T19:59:55.574Z,37.05
2022-12-20T20:02:23.389Z,31.92
2022-12-20T20:04:50.459Z,30.67
2022-12-20T20:07:18.703Z,29.27
2022-12-20T20:09:45.900Z,28.75
2022-12-20T20:12:13.081Z,26.10
2022-12-20T20:14:41.668Z,27.15
2022-12-20T20:17:16.408Z,31.27
2022-12-20T20:43:43.900Z,29.60
2022-12-20T20:46:13.787Z,35.25
2022-12-20T20:48:41.963Z,28.25
2022-12-20T20:51:16.208Z,25.83
2022-12-20T20:54:08.507Z,27.50
2022-12-20T20:56:36.076Z,26.17
2022-12-20T20:59:06.944Z,25.33
2022-12-20T21:01:35.870Z,28.67
2022-12-20T21:04:04.796Z,31.08
2022-12-20T21:06:47.009Z,34.47
2022-12-20T21:09:14.660Z,37.97
2022-12-20T21:11:44.236Z,30.90
2022-12-20T21:14:12.349Z,29.58
2022-12-20T21:16:41.223Z,33.65
2022-12-20T21:19:10.433Z,25.73
2022-12-20T21:21:37.299Z,26.33
2022-12-20T21:24:08.242Z,35.00
2022-12-20T21:26:35.103Z,41.38
2022-12-20T21:29:03.769Z,42.47
2022-12-20T21:31:31.279Z,27.33
2022-12-20T21:33:58.235Z,24.75
2022-12-20T21:36:26.822Z,26.27
2022-12-20T21:38:56.420Z,24.40
2022-12-20T21:41:26.244Z,25.10
2022-12-20T21:44:00.590Z,31.55
2022-12-20T21:46:29.703Z,31.75
2022-12-20T21:48:56.643Z,32.97
2022-12-20T21:51:25.942Z,37.03
2022-12-20T21:53:57.963Z,36.33
2022-12-20T21:56:27.404Z,28.95
2022-12-20T21:58:54.188Z,29.38
2022-12-20T22:01:25.263Z,30.42
2022-12-20T22:04:03.962Z,28.67
2022-12-20T22:06:32.885Z,33.35
2022-12-20T22:09:03.001Z,27.75
2022-12-20T22:11:29.763Z,46.03
2022-12-20T22:13:58.107Z,39.08
2022-12-20T22:16:28.425Z,31.48
2022-12-20T22:18:56.695Z,34.22
2022-12-20T22:21:27.092Z,31.38
2022-12-20T22:23:58.228Z,29.50
2022-12-20T22:26:28.654Z,30.55
2022-12-20T22:28:59.895Z,47.83
2022-12-20T22:31:27.390Z,33.20
2022-12-20T22:33:56.226Z,24.17
2022-12-20T22:36:23.499Z,33.30
2022-12-20T22:38:55.274Z,35.95
2022-12-20T22:41:28.944Z,32.60
2022-12-20T22:43:58.313Z,29.08
2022-12-20T22:46:25.863Z,31.48
2022-12-20T22:48:52.773Z,33.08
2022-12-20T22:51:22.927Z,34.78
2022-12-20T22:53:50.280Z,33.70
2022-12-20T22:56:19.658Z,29.52
2022-12-20T22:58:54.670Z,33.75
2022-12-20T23:01:23.366Z,34.10
2022-12-20T23:03:50.878Z,50.67
2022-12-20T23:06:20.483Z,33.67
2022-12-20T23:08:48.427Z,46.53
2022-12-20T23:11:45.093Z,37.42
2022-12-20T23:14:36.926Z,31.10
2022-12-20T23:17:05.414Z,41.05
2022-12-20T23:19:53.569Z,28.88
2022-12-20T23:22:40.968Z,26.80
2022-12-20T23:25:14.774Z,29.38
2022-12-20T23:27:43.932Z,25.02
2022-12-20T23:30:13.754Z,33.50
2022-12-20T23:32:44.545Z,28.55
2022-12-20T23:35:14.245Z,22.92
2022-12-20T23:37:41.863Z,26.63
2022-12-20T23:40:10.687Z,27.70
2022-12-20T23:42:38.373Z,26.75
2022-12-20T23:45:06.309Z,41.50
2022-12-20T23:47:33.382Z,32.72
2022-12-20T23:50:00.176Z,29.75
2022-12-20T23:52:27.454Z,25.73
2022-12-20T23:54:55.467Z,28.02
2022-12-20T23:57:22.683Z,30.42
2022-12-20T23:59:49.519Z,28.73
